sensor_id;sensor_type;location;lat;lon;timestamp;pressure;altitude;pressure_sealevel;temperature;humidity
7105;BME280;3594;42.152;24.714;2023-10-31T00:00:31;32464.81;;;10.79;nan
7105;BME280;3594;42.152;24.714;2023-10-31T00:02:57;31827.59;;;10.96;nan
7105;BME280;3594;42.152;24.714;2023-10-31T00:05:22;31503.00;;;10.96;nan
7105;BME280;3594;42.152;24.714;2023-10-31T00:07:47;30535.97;;;11.05;nan
7105;BME280;3594;42.152;24.714;2023-10-31T00:10:13;29232.25;;;10.93;nan
7105;BME280;3594;42.152;24.714;2023-10-31T00:12:38;25662.75;;;10.79;nan
7105;BME280;3594;42.152;24.714;2023-10-31T00:15:05;23724.28;;;10.84;nan
7105;BME280;3594;42.152;24.714;2023-10-31T00:17:30;21787.09;;;10.90;nan
7105;BME280;3594;42.152;24.714;2023-10-31T00:19:56;19846.25;;;10.86;nan
7105;BME280;3594;42.152;24.714;2023-10-31T00:22:21;19193.72;;;10.71;nan
7105;BME280;3594;42.152;24.714;2023-10-31T00:24:47;18876.53;;;10.85;nan
7105;BME280;3594;42.152;24.714;2023-10-31T00:27:12;18226.13;;;10.74;nan
7105;BME280;3594;42.152;24.714;2023-10-31T00:29:38;17247.78;;;10.48;nan
7105;BME280;3594;42.152;24.714;2023-10-31T00:32:04;15969.66;;;10.81;nan
7105;BME280;3594;42.152;24.714;2023-10-31T00:34:29;14354.09;;;10.73;nan
7105;BME280;3594;42.152;24.714;2023-10-31T00:36:55;14348.84;;;10.58;nan
7105;BME280;3594;42.152;24.714;2023-10-31T00:39:20;13388.38;;;10.78;nan
7105;BME280;3594;42.152;24.714;2023-10-31T00:41:47;12743.66;;;10.78;nan
7105;BME280;3594;42.152;24.714;2023-10-31T00:44:13;14352.00;;;10.67;nan
7105;BME280;3594;42.152;24.714;2023-10-31T00:46:38;15319.25;;;10.67;nan
7105;BME280;3594;42.152;24.714;2023-10-31T00:49:04;15322.91;;;10.77;nan
7105;BME280;3594;42.152;24.714;2023-10-31T00:51:29;14032.88;;;10.77;nan
7105;BME280;3594;42.152;24.714;2023-10-31T00:53:55;15964.34;;;10.67;nan
7105;BME280;3594;42.152;24.714;2023-10-31T00:56:20;16294.22;;;10.86;nan
7105;BME280;3594;42.152;24.714;2023-10-31T00:58:46;16931.84;;;10.66;nan
7105;BME280;3594;42.152;24.714;2023-10-31T01:01:11;16612.31;;;10.74;nan
7105;BME280;3594;42.152;24.714;2023-10-31T01:03:37;16282.94;;;10.56;nan
7105;BME280;3594;42.152;24.714;2023-10-31T01:06:03;15963.78;;;10.65;nan
7105;BME280;3594;42.152;24.714;2023-10-31T01:08:28;13698.19;;;10.40;nan
7105;BME280;3594;42.152;24.714;2023-10-31T01:10:55;14027.16;;;10.60;nan
7105;BME280;3594;42.152;24.714;2023-10-31T01:13:20;15311.72;;;10.46;nan
7105;BME280;3594;42.152;24.714;2023-10-31T01:15:46;15304.03;;;10.25;nan
7105;BME280;3594;42.152;24.714;2023-10-31T01:18:11;16281.22;;;10.51;nan
7105;BME280;3594;42.152;24.714;2023-10-31T01:20:37;19183.78;;;10.48;nan
7105;BME280;3594;42.152;24.714;2023-10-31T01:23:03;19832.75;;;10.55;nan
7105;BME280;3594;42.152;24.714;2023-10-31T01:25:29;20480.00;;;10.58;nan
7105;BME280;3594;42.152;24.714;2023-10-31T01:27:54;19500.72;;;10.34;nan
7105;BME280;3594;42.152;24.714;2023-10-31T01:30:19;18845.91;;;10.12;nan
7105;BME280;3594;42.152;24.714;2023-10-31T01:32:45;18530.28;;;10.29;nan
7105;BME280;3594;42.152;24.714;2023-10-31T01:35:10;17231.81;;;10.08;nan
7105;BME280;3594;42.152;24.714;2023-10-31T01:37:36;14332.72;;;10.11;nan
7105;BME280;3594;42.152;24.714;2023-10-31T01:40:02;14651.31;;;10.01;nan
7105;BME280;3594;42.152;24.714;2023-10-31T01:42:28;13367.97;;;10.16;nan
7105;BME280;3594;42.152;24.714;2023-10-31T01:44:54;12079.47;;;10.14;nan
7105;BME280;3594;42.152;24.714;2023-10-31T01:47:19;10784.56;;;9.89;nan
7105;BME280;3594;42.152;24.714;2023-10-31T01:49:44;12078.69;;;10.12;nan
7105;BME280;3594;42.152;24.714;2023-10-31T01:52:10;12724.53;;;10.18;nan
7105;BME280;3594;42.152;24.714;2023-10-31T01:54:35;12718.88;;;10.00;nan
7105;BME280;3594;42.152;24.714;2023-10-31T01:57:02;12073.22;;;9.94;nan
7105;BME280;3594;42.152;24.714;2023-10-31T01:59:30;13046.09;;;10.16;nan
7105;BME280;3594;42.152;24.714;2023-10-31T02:01:56;13038.19;;;9.92;nan
7105;BME280;3594;42.152;24.714;2023-10-31T02:04:24;12394.75;;;9.93;nan
7105;BME280;3594;42.152;24.714;2023-10-31T02:06:49;11752.03;;;9.96;nan
7105;BME280;3594;42.152;24.714;2023-10-31T02:09:15;11423.28;;;9.73;nan
7105;BME280;3594;42.152;24.714;2023-10-31T02:11:41;11750.63;;;9.92;nan
7105;BME280;3594;42.152;24.714;2023-10-31T02:14:06;12713.53;;;9.84;nan
7105;BME280;3594;42.152;24.714;2023-10-31T02:16:31;13355.59;;;9.79;nan
7105;BME280;3594;42.152;24.714;2023-10-31T02:18:57;12703.03;;;9.51;nan
7105;BME280;3594;42.152;24.714;2023-10-31T02:21:24;11737.28;;;9.48;nan
7105;BME280;3594;42.152;24.714;2023-10-31T02:24:01;11097.19;;;9.58;nan
7105;BME280;3594;42.152;24.714;2023-10-31T02:26:31;9811.44;;;9.58;nan
7105;BME280;3594;42.152;24.714;2023-10-31T02:28:57;9485.31;;;9.41;nan
7105;BME280;3594;42.152;24.714;2023-10-31T02:31:22;6599.03;;;9.59;nan
7105;BME280;3594;42.152;24.714;2023-10-31T02:33:48;5312.66;;;9.48;nan
7105;BME280;3594;42.152;24.714;2023-10-31T02:36:13;5957.94;;;9.64;nan
7105;BME280;3594;42.152;24.714;2023-10-31T02:38:39;4989.28;;;9.36;nan
7105;BME280;3594;42.152;24.714;2023-10-31T02:41:05;4346.50;;;9.29;nan
7105;BME280;3594;42.152;24.714;2023-10-31T02:43:30;3706.66;;;9.38;nan
7105;BME280;3594;42.152;24.714;2023-10-31T02:45:56;2103.25;;;9.37;nan
7105;BME280;3594;42.152;24.714;2023-10-31T02:48:21;1140.81;;;9.29;nan
7105;BME280;3594;42.152;24.714;2023-10-31T02:50:47;1138.69;;;9.13;nan
7105;BME280;3594;42.152;24.714;2023-10-31T02:53:12;500.03;;;9.29;nan
7105;BME280;3594;42.152;24.714;2023-10-31T02:55:37;179.81;;;9.30;nan
7105;BME280;3594;42.152;24.714;2023-10-31T02:58:03;-783.22;;;9.09;nan
7105;BME280;3594;42.152;24.714;2023-10-31T03:00:28;-1741.97;;;9.26;nan
7105;BME280;3594;42.152;24.714;2023-10-31T03:02:54;-2386.19;;;8.71;nan
7105;BME280;3594;42.152;24.714;2023-10-31T03:05:19;-2701.63;;;9.35;nan
7105;BME280;3594;42.152;24.714;2023-10-31T03:07:45;-2381.50;;;9.36;nan
7105;BME280;3594;42.152;24.714;2023-10-31T03:10:10;-2701.09;;;9.43;nan
7105;BME280;3594;42.152;24.714;2023-10-31T03:12:36;-3662.88;;;9.12;nan
7105;BME280;3594;42.152;24.714;2023-10-31T03:15:02;-4621.78;;;9.27;nan
7105;BME280;3594;42.152;24.714;2023-10-31T03:17:29;-4622.38;;;9.11;nan
7105;BME280;3594;42.152;24.714;2023-10-31T03:19:55;-5262.00;;;9.05;nan
7105;BME280;3594;42.152;24.714;2023-10-31T03:22:20;-5900.97;;;9.23;nan
7105;BME280;3594;42.152;24.714;2023-10-31T03:24:46;-6220.69;;;9.20;nan
7105;BME280;3594;42.152;24.714;2023-10-31T03:27:11;-6859.94;;;9.23;nan
7105;BME280;3594;42.152;24.714;2023-10-31T03:29:37;-6859.94;;;9.19;nan
7105;BME280;3594;42.152;24.714;2023-10-31T03:32:02;-6859.94;;;9.07;nan
7105;BME280;3594;42.152;24.714;2023-10-31T03:34:28;-6859.94;;;9.01;nan
7105;BME280;3594;42.152;24.714;2023-10-31T03:36:54;-7179.41;;;9.02;nan
7105;BME280;3594;42.152;24.714;2023-10-31T03:39:19;-8776.16;;;8.96;nan
7105;BME280;3594;42.152;24.714;2023-10-31T03:41:45;-8455.75;;;8.53;nan
7105;BME280;3594;42.152;24.714;2023-10-31T03:44:11;-8456.59;;;8.86;nan
7105;BME280;3594;42.152;24.714;2023-10-31T03:46:37;-9094.38;;;8.67;nan
7105;BME280;3594;42.152;24.714;2023-10-31T03:49:02;-8775.63;;;8.79;nan
7105;BME280;3594;42.152;24.714;2023-10-31T03:51:28;-9093.91;;;8.55;nan
7105;BME280;3594;42.152;24.714;2023-10-31T03:53:53;-9732.38;;;8.65;nan
7105;BME280;3594;42.152;24.714;2023-10-31T03:56:18;-10370.97;;;8.75;nan
7105;BME280;3594;42.152;24.714;2023-10-31T03:58:44;-10370.44;;;8.66;nan
7105;BME280;3594;42.152;24.714;2023-10-31T04:01:09;-10050.78;;;8.53;nan
7105;BME280;3594;42.152;24.714;2023-10-31T04:03:35;-10050.56;;;8.49;nan
7105;BME280;3594;42.152;24.714;2023-10-31T04:06:00;-10689.28;;;8.64;nan
7105;BME280;3594;42.152;24.714;2023-10-31T04:08:26;-10688.63;;;8.54;nan
7105;BME280;3594;42.152;24.714;2023-10-31T04:10:51;-10050.66;;;8.51;nan
7105;BME280;3594;42.152;24.714;2023-10-31T04:13:16;-10049.66;;;8.32;nan
7105;BME280;3594;42.152;24.714;2023-10-31T04:15:42;-10686.59;;;8.22;nan
7105;BME280;3594;42.152;24.714;2023-10-31T04:18:07;-10367.81;;;8.21;nan
7105;BME280;3594;42.152;24.714;2023-10-31T04:20:32;-10050.59;;;8.50;nan
7105;BME280;3594;42.152;24.714;2023-10-31T04:22:58;-9411.44;;;8.20;nan
7105;BME280;3594;42.152;24.714;2023-10-31T04:25:24;-9406.63;;;7.06;nan
7105;BME280;3594;42.152;24.714;2023-10-31T04:27:49;-10048.06;;;8.02;nan
7105;BME280;3594;42.152;24.714;2023-10-31T04:30:14;-9729.88;;;8.12;nan
7105;BME280;3594;42.152;24.714;2023-10-31T04:32:40;-10047.06;;;7.82;nan
7105;BME280;3594;42.152;24.714;2023-10-31T04:35:06;-11003.16;;;7.90;nan
7105;BME280;3594;42.152;24.714;2023-10-31T04:37:31;-11319.50;;;7.61;nan
7105;BME280;3594;42.152;24.714;2023-10-31T04:39:56;-11636.00;;;7.38;nan
7105;BME280;3594;42.152;24.714;2023-10-31T04:42:22;-11957.44;;;7.77;nan
7105;BME280;3594;42.152;24.714;2023-10-31T04:44:47;-12276.50;;;7.85;nan
7105;BME280;3594;42.152;24.714;2023-10-31T04:47:13;-12910.47;;;7.59;nan
7105;BME280;3594;42.152;24.714;2023-10-31T04:49:38;-13229.31;;;7.65;nan
7105;BME280;3594;42.152;24.714;2023-10-31T04:54:29;-14186.81;;;7.91;nan
7105;BME280;3594;42.152;24.714;2023-10-31T04:56:55;-14823.38;;;7.93;nan
7105;BME280;3594;42.152;24.714;2023-10-31T04:59:20;-15775.53;;;7.78;nan
7105;BME280;3594;42.152;24.714;2023-10-31T05:01:49;-16096.41;;;7.97;nan
7105;BME280;3594;42.152;24.714;2023-10-31T05:04:20;-16413.00;;;7.88;nan
7105;BME280;3594;42.152;24.714;2023-10-31T05:06:45;-16733.41;;;8.04;nan
7105;BME280;3594;42.152;24.714;2023-10-31T05:09:11;-17053.59;;;8.17;nan
7105;BME280;3594;42.152;24.714;2023-10-31T05:11:37;-17055.22;;;8.26;nan
7105;BME280;3594;42.152;24.714;2023-10-31T05:14:02;-17056.13;;;8.32;nan
7105;BME280;3594;42.152;24.714;2023-10-31T05:16:27;-17055.88;;;8.30;nan
7105;BME280;3594;42.152;24.714;2023-10-31T05:18:53;-17376.25;;;8.43;nan
7105;BME280;3594;42.152;24.714;2023-10-31T05:21:19;-17373.91;;;8.30;nan
7105;BME280;3594;42.152;24.714;2023-10-31T05:23:48;-17379.72;;;8.64;nan
7105;BME280;3594;42.152;24.714;2023-10-31T05:26:14;-17062.03;;;8.67;nan
7105;BME280;3594;42.152;24.714;2023-10-31T05:28:41;-16428.63;;;8.88;nan
7105;BME280;3594;42.152;24.714;2023-10-31T05:31:06;-15474.88;;;9.02;nan
7105;BME280;3594;42.152;24.714;2023-10-31T05:33:32;-15472.91;;;8.88;nan
7105;BME280;3594;42.152;24.714;2023-10-31T05:35:57;-15157.72;;;9.13;nan
7105;BME280;3594;42.152;24.714;2023-10-31T05:38:22;-12605.84;;;9.03;nan
7105;BME280;3594;42.152;24.714;2023-10-31T05:40:48;-12607.47;;;9.20;nan
7105;BME280;3594;42.152;24.714;2023-10-31T05:43:13;-11332.16;;;9.34;nan
7105;BME280;3594;42.152;24.714;2023-10-31T05:45:38;-10693.66;;;9.35;nan
7105;BME280;3594;42.152;24.714;2023-10-31T05:48:04;-11012.50;;;9.28;nan
7105;BME280;3594;42.152;24.714;2023-10-31T05:50:29;-10694.22;;;9.44;nan
7105;BME280;3594;42.152;24.714;2023-10-31T05:52:55;-10694.75;;;9.52;nan
7105;BME280;3594;42.152;24.714;2023-10-31T05:55:21;-11333.97;;;9.59;nan
7105;BME280;3594;42.152;24.714;2023-10-31T05:57:46;-11015.47;;;9.72;nan
7105;BME280;3594;42.152;24.714;2023-10-31T06:00:12;-10695.56;;;9.65;nan
7105;BME280;3594;42.152;24.714;2023-10-31T06:02:37;-10696.63;;;9.82;nan
7105;BME280;3594;42.152;24.714;2023-10-31T06:05:03;-10377.06;;;9.82;nan
7105;BME280;3594;42.152;24.714;2023-10-31T06:07:29;-10059.00;;;10.11;nan
7105;BME280;3594;42.152;24.714;2023-10-31T06:09:55;-9100.06;;;10.25;nan
7105;BME280;3594;42.152;24.714;2023-10-31T06:12:20;-6219.47;;;10.34;nan
7105;BME280;3594;42.152;24.714;2023-10-31T06:14:46;-4937.97;;;10.42;nan
7105;BME280;3594;42.152;24.714;2023-10-31T06:17:11;-4938.06;;;10.39;nan
7105;BME280;3594;42.152;24.714;2023-10-31T06:19:37;-3975.69;;;10.61;nan
7105;BME280;3594;42.152;24.714;2023-10-31T06:22:03;-1730.31;;;10.66;nan
7105;BME280;3594;42.152;24.714;2023-10-31T06:24:29;-1087.19;;;10.80;nan
7105;BME280;3594;42.152;24.714;2023-10-31T06:26:54;1160.88;;;10.83;nan
7105;BME280;3594;42.152;24.714;2023-10-31T06:29:20;2771.06;;;11.06;nan
7105;BME280;3594;42.152;24.714;2023-10-31T06:31:45;5025.38;;;11.22;nan
7105;BME280;3594;42.152;24.714;2023-10-31T06:34:10;7920.09;;;11.10;nan
7105;BME280;3594;42.152;24.714;2023-10-31T06:36:36;8891.53;;;11.30;nan
7105;BME280;3594;42.152;24.714;2023-10-31T06:39:01;9213.38;;;11.29;nan
7105;BME280;3594;42.152;24.714;2023-10-31T06:41:27;11802.09;;;11.61;nan
7105;BME280;3594;42.152;24.714;2023-10-31T06:43:53;11803.97;;;11.67;nan
7105;BME280;3594;42.152;24.714;2023-10-31T06:46:18;16330.84;;;11.82;nan
7105;BME280;3594;42.152;24.714;2023-10-31T06:48:43;19249.59;;;12.02;nan
7105;BME280;3594;42.152;24.714;2023-10-31T06:51:09;17957.84;;;12.08;nan
7105;BME280;3594;42.152;24.714;2023-10-31T06:53:34;16666.34;;;12.14;nan
7105;BME280;3594;42.152;24.714;2023-10-31T06:56:00;17959.09;;;12.11;nan
7105;BME280;3594;42.152;24.714;2023-10-31T06:58:25;19259.09;;;12.24;nan
7105;BME280;3594;42.152;24.714;2023-10-31T07:00:50;22176.16;;;12.29;nan
7105;BME280;3594;42.152;24.714;2023-10-31T07:03:17;22191.53;;;12.61;nan
7105;BME280;3594;42.152;24.714;2023-10-31T07:05:42;22206.22;;;12.92;nan
7105;BME280;3594;42.152;24.714;2023-10-31T07:08:08;19298.06;;;13.15;nan
7105;BME280;3594;42.152;24.714;2023-10-31T07:10:34;26439.03;;;13.16;nan
7105;BME280;3594;42.152;24.714;2023-10-31T07:13:00;32628.66;;;13.33;nan
7105;BME280;3594;42.152;24.714;2023-10-31T07:15:26;34263.22;;;13.42;nan
7105;BME280;3594;42.152;24.714;2023-10-31T07:17:51;38681.28;;;13.54;nan
7105;BME280;3594;42.152;24.714;2023-10-31T07:20:16;38927.50;;;11.56;nan
7105;BME280;3594;42.152;24.714;2023-10-31T07:22:42;42860.84;;;13.87;nan
7105;BME280;3594;42.152;24.714;2023-10-31T07:25:08;45154.50;;;13.83;nan
7105;BME280;3594;42.152;24.714;2023-10-31T07:27:33;48023.56;;;14.18;nan
7105;BME280;3594;42.152;24.714;2023-10-31T07:29:59;49253.97;;;14.31;nan
7105;BME280;3594;42.152;24.714;2023-10-31T07:32:25;50253.47;;;14.48;nan
7105;BME280;3594;42.152;24.714;2023-10-31T07:34:51;52215.53;;;14.47;nan
7105;BME280;3594;42.152;24.714;2023-10-31T07:37:17;54018.47;;;14.86;nan
7105;BME280;3594;42.152;24.714;2023-10-31T07:39:43;55387.75;;;15.05;nan
7105;BME280;3594;42.152;24.714;2023-10-31T07:42:08;56206.78;;;15.15;nan
7105;BME280;3594;42.152;24.714;2023-10-31T07:44:34;56433.44;;;15.18;nan
7105;BME280;3594;42.152;24.714;2023-10-31T07:46:59;56360.19;;;15.29;nan
7105;BME280;3594;42.152;24.714;2023-10-31T07:49:25;56964.94;;;15.37;nan
7105;BME280;3594;42.152;24.714;2023-10-31T07:51:50;57367.53;;;15.51;nan
7105;BME280;3594;42.152;24.714;2023-10-31T07:54:16;56368.50;;;15.59;nan
7105;BME280;3594;42.152;24.714;2023-10-31T07:56:41;56761.41;;;15.59;nan
7105;BME280;3594;42.152;24.714;2023-10-31T07:59:07;57229.34;;;15.71;nan
7105;BME280;3594;42.152;24.714;2023-10-31T08:01:36;57724.41;;;15.86;nan
7105;BME280;3594;42.152;24.714;2023-10-31T08:04:02;57705.41;;;14.76;nan
7105;BME280;3594;42.152;24.714;2023-10-31T08:06:27;58254.94;;;16.25;nan
7105;BME280;3594;42.152;24.714;2023-10-31T08:08:52;58337.41;;;16.16;nan
7105;BME280;3594;42.152;24.714;2023-10-31T08:11:18;58437.13;;;16.22;nan
7105;BME280;3594;42.152;24.714;2023-10-31T08:13:44;58732.81;;;16.31;nan
7105;BME280;3594;42.152;24.714;2023-10-31T08:16:09;58767.81;;;16.40;nan
7105;BME280;3594;42.152;24.714;2023-10-31T08:18:35;58756.53;;;16.42;nan
7105;BME280;3594;42.152;24.714;2023-10-31T08:21:01;58654.84;;;16.48;nan
7105;BME280;3594;42.152;24.714;2023-10-31T08:23:28;58968.72;;;16.57;nan
7105;BME280;3594;42.152;24.714;2023-10-31T08:25:53;59206.44;;;16.91;nan
7105;BME280;3594;42.152;24.714;2023-10-31T08:28:19;59488.16;;;17.15;nan
7105;BME280;3594;42.152;24.714;2023-10-31T08:30:44;59591.69;;;17.20;nan
7105;BME280;3594;42.152;24.714;2023-10-31T08:33:10;59678.66;;;17.31;nan
7105;BME280;3594;42.152;24.714;2023-10-31T08:35:35;59744.47;;;17.28;nan
7105;BME280;3594;42.152;24.714;2023-10-31T08:38:01;60019.75;;;17.57;nan
7105;BME280;3594;42.152;24.714;2023-10-31T08:40:26;60134.16;;;17.60;nan
7105;BME280;3594;42.152;24.714;2023-10-31T08:42:51;60168.22;;;17.54;nan
7105;BME280;3594;42.152;24.714;2023-10-31T08:45:17;60299.28;;;17.65;nan
7105;BME280;3594;42.152;24.714;2023-10-31T08:47:43;60373.41;;;17.88;nan
7105;BME280;3594;42.152;24.714;2023-10-31T08:50:08;60418.53;;;18.03;nan
7105;BME280;3594;42.152;24.714;2023-10-31T08:52:34;60517.84;;;18.04;nan
7105;BME280;3594;42.152;24.714;2023-10-31T08:55:00;60672.78;;;18.27;nan
7105;BME280;3594;42.152;24.714;2023-10-31T08:57:25;60692.16;;;18.24;nan
7105;BME280;3594;42.152;24.714;2023-10-31T08:59:51;60704.94;;;18.28;nan
7105;BME280;3594;42.152;24.714;2023-10-31T09:02:16;60713.34;;;18.17;nan
7105;BME280;3594;42.152;24.714;2023-10-31T09:04:42;60798.84;;;18.50;nan
7105;BME280;3594;42.152;24.714;2023-10-31T09:07:07;60817.69;;;18.65;nan
7105;BME280;3594;42.152;24.714;2023-10-31T09:09:33;60925.25;;;18.64;nan
7105;BME280;3594;42.152;24.714;2023-10-31T09:11:58;60938.59;;;18.80;nan
7105;BME280;3594;42.152;24.714;2023-10-31T09:14:23;61072.06;;;18.91;nan
7105;BME280;3594;42.152;24.714;2023-10-31T09:16:49;61061.31;;;19.16;nan
7105;BME280;3594;42.152;24.714;2023-10-31T09:19:15;61130.56;;;19.09;nan
7105;BME280;3594;42.152;24.714;2023-10-31T09:21:40;61085.75;;;19.17;nan
7105;BME280;3594;42.152;24.714;2023-10-31T09:24:07;61177.75;;;19.32;nan
7105;BME280;3594;42.152;24.714;2023-10-31T09:26:33;61215.59;;;19.38;nan
7105;BME280;3594;42.152;24.714;2023-10-31T09:28:58;61273.41;;;19.53;nan
7105;BME280;3594;42.152;24.714;2023-10-31T09:31:24;61437.84;;;19.66;nan
7105;BME280;3594;42.152;24.714;2023-10-31T09:33:49;61546.22;;;19.61;nan
7105;BME280;3594;42.152;24.714;2023-10-31T09:36:15;61428.97;;;19.76;nan
7105;BME280;3594;42.152;24.714;2023-10-31T09:38:40;61556.03;;;19.60;nan
7105;BME280;3594;42.152;24.714;2023-10-31T09:41:06;61548.19;;;19.93;nan
7105;BME280;3594;42.152;24.714;2023-10-31T09:43:32;61536.97;;;19.78;nan
7105;BME280;3594;42.152;24.714;2023-10-31T09:45:58;61711.66;;;19.88;nan
7105;BME280;3594;42.152;24.714;2023-10-31T09:48:25;61623.31;;;19.97;nan
7105;BME280;3594;42.152;24.714;2023-10-31T09:50:51;61724.19;;;19.95;nan
7105;BME280;3594;42.152;24.714;2023-10-31T09:53:18;61616.72;;;20.10;nan
7105;BME280;3594;42.152;24.714;2023-10-31T09:55:45;61669.47;;;20.41;nan
7105;BME280;3594;42.152;24.714;2023-10-31T09:58:11;61675.84;;;20.53;nan
7105;BME280;3594;42.152;24.714;2023-10-31T10:00:37;61964.50;;;20.58;nan
7105;BME280;3594;42.152;24.714;2023-10-31T10:03:07;61661.22;;;20.63;nan
7105;BME280;3594;42.152;24.714;2023-10-31T10:05:36;61719.88;;;20.74;nan
7105;BME280;3594;42.152;24.714;2023-10-31T10:08:03;61678.91;;;20.58;nan
7105;BME280;3594;42.152;24.714;2023-10-31T10:10:28;61777.66;;;20.70;nan
7105;BME280;3594;42.152;24.714;2023-10-31T10:12:55;61605.03;;;20.18;nan
7105;BME280;3594;42.152;24.714;2023-10-31T10:15:21;61777.72;;;20.17;nan
7105;BME280;3594;42.152;24.714;2023-10-31T10:17:52;61778.63;;;20.15;nan
7105;BME280;3594;42.152;24.714;2023-10-31T10:20:18;61671.00;;;20.35;nan
7105;BME280;3594;42.152;24.714;2023-10-31T10:22:44;61742.13;;;20.57;nan
7105;BME280;3594;42.152;24.714;2023-10-31T10:25:16;61768.06;;;20.73;nan
7105;BME280;3594;42.152;24.714;2023-10-31T10:27:44;61708.44;;;20.68;nan
7105;BME280;3594;42.152;24.714;2023-10-31T10:30:10;61835.09;;;21.00;nan
7105;BME280;3594;42.152;24.714;2023-10-31T10:32:36;61775.66;;;21.14;nan
7105;BME280;3594;42.152;24.714;2023-10-31T10:35:02;61704.19;;;21.23;nan
7105;BME280;3594;42.152;24.714;2023-10-31T10:37:27;61799.88;;;21.18;nan
7105;BME280;3594;42.152;24.714;2023-10-31T10:39:53;61925.25;;;21.13;nan
7105;BME280;3594;42.152;24.714;2023-10-31T10:42:44;61858.63;;;21.40;nan
7105;BME280;3594;42.152;24.714;2023-10-31T10:45:12;61769.53;;;21.32;nan
7105;BME280;3594;42.152;24.714;2023-10-31T10:47:39;61788.13;;;21.42;nan
7105;BME280;3594;42.152;24.714;2023-10-31T10:50:05;61800.69;;;21.48;nan
7105;BME280;3594;42.152;24.714;2023-10-31T10:53:14;61937.75;;;21.73;nan
7105;BME280;3594;42.152;24.714;2023-10-31T10:55:45;61866.16;;;21.70;nan
7105;BME280;3594;42.152;24.714;2023-10-31T10:58:44;61932.56;;;21.41;nan
7105;BME280;3594;42.152;24.714;2023-10-31T11:01:10;61855.78;;;21.53;nan
7105;BME280;3594;42.152;24.714;2023-10-31T11:03:36;61830.31;;;21.70;nan
7105;BME280;3594;42.152;24.714;2023-10-31T11:06:03;61984.56;;;21.89;nan
7105;BME280;3594;42.152;24.714;2023-10-31T11:08:29;61912.38;;;22.01;nan
7105;BME280;3594;42.152;24.714;2023-10-31T11:10:55;62028.34;;;22.00;nan
7105;BME280;3594;42.152;24.714;2023-10-31T11:13:22;61929.03;;;22.07;nan
7105;BME280;3594;42.152;24.714;2023-10-31T11:15:51;61972.97;;;22.09;nan
7105;BME280;3594;42.152;24.714;2023-10-31T11:18:19;61857.25;;;21.96;nan
7105;BME280;3594;42.152;24.714;2023-10-31T11:20:45;61930.03;;;22.01;nan
7105;BME280;3594;42.152;24.714;2023-10-31T11:23:11;61932.22;;;22.08;nan
7105;BME280;3594;42.152;24.714;2023-10-31T11:25:42;61897.66;;;22.00;nan
7105;BME280;3594;42.152;24.714;2023-10-31T11:28:14;62003.66;;;21.88;nan
7105;BME280;3594;42.152;24.714;2023-10-31T11:30:41;61982.19;;;21.92;nan
7105;BME280;3594;42.152;24.714;2023-10-31T11:33:11;61927.41;;;22.17;nan
7105;BME280;3594;42.152;24.714;2023-10-31T11:35:39;61898.50;;;21.87;nan
7105;BME280;3594;42.152;24.714;2023-10-31T11:38:06;61892.22;;;21.97;nan
7105;BME280;3594;42.152;24.714;2023-10-31T11:40:32;61937.16;;;21.89;nan
7105;BME280;3594;42.152;24.714;2023-10-31T11:42:59;63458.31;;;20.05;nan
7105;BME280;3594;42.152;24.714;2023-10-31T11:47:59;61917.00;;;21.85;nan
7105;BME280;3594;42.152;24.714;2023-10-31T11:50:24;62101.72;;;21.85;nan
7105;BME280;3594;42.152;24.714;2023-10-31T11:53:19;61883.34;;;21.92;nan
7105;BME280;3594;42.152;24.714;2023-10-31T11:55:47;62077.22;;;21.63;nan
7105;BME280;3594;42.152;24.714;2023-10-31T12:00:47;62019.94;;;21.84;nan
7105;BME280;3594;42.152;24.714;2023-10-31T12:03:16;61979.44;;;22.17;nan
7105;BME280;3594;42.152;24.714;2023-10-31T12:05:56;61948.31;;;21.96;nan
7105;BME280;3594;42.152;24.714;2023-10-31T12:08:41;61951.31;;;21.74;nan
7105;BME280;3594;42.152;24.714;2023-10-31T12:11:11;61911.94;;;21.92;nan
7105;BME280;3594;42.152;24.714;2023-10-31T12:13:51;61891.22;;;21.87;nan
7105;BME280;3594;42.152;24.714;2023-10-31T12:16:17;62069.94;;;21.68;nan
7105;BME280;3594;42.152;24.714;2023-10-31T12:18:43;61948.09;;;21.62;nan
7105;BME280;3594;42.152;24.714;2023-10-31T12:21:09;62037.88;;;21.49;nan
7105;BME280;3594;42.152;24.714;2023-10-31T12:23:36;61942.25;;;21.49;nan
7105;BME280;3594;42.152;24.714;2023-10-31T12:26:02;61730.50;;;21.48;nan
7105;BME280;3594;42.152;24.714;2023-10-31T12:28:27;62003.44;;;21.85;nan
7105;BME280;3594;42.152;24.714;2023-10-31T12:30:54;61998.41;;;21.76;nan
7105;BME280;3594;42.152;24.714;2023-10-31T12:33:22;61921.72;;;22.12;nan
7105;BME280;3594;42.152;24.714;2023-10-31T12:35:51;61950.88;;;22.29;nan
7105;BME280;3594;42.152;24.714;2023-10-31T12:38:19;61879.41;;;22.16;nan
7105;BME280;3594;42.152;24.714;2023-10-31T12:43:10;62046.91;;;22.15;nan
7105;BME280;3594;42.152;24.714;2023-10-31T12:45:36;61890.84;;;22.22;nan
7105;BME280;3594;42.152;24.714;2023-10-31T12:48:09;61915.34;;;22.11;nan
7105;BME280;3594;42.152;24.714;2023-10-31T12:50:37;61962.84;;;22.23;nan
7105;BME280;3594;42.152;24.714;2023-10-31T12:53:04;61922.75;;;22.18;nan
7105;BME280;3594;42.152;24.714;2023-10-31T12:55:40;61830.81;;;22.03;nan
7105;BME280;3594;42.152;24.714;2023-10-31T12:58:06;62038.69;;;22.05;nan
7105;BME280;3594;42.152;24.714;2023-10-31T13:00:33;62074.38;;;22.30;nan
7105;BME280;3594;42.152;24.714;2023-10-31T13:03:04;62010.13;;;22.17;nan
7105;BME280;3594;42.152;24.714;2023-10-31T13:05:30;61906.09;;;22.12;nan
7105;BME280;3594;42.152;24.714;2023-10-31T13:07:57;62023.78;;;22.13;nan
7105;BME280;3594;42.152;24.714;2023-10-31T13:10:24;61906.28;;;22.03;nan
7105;BME280;3594;42.152;24.714;2023-10-31T13:12:50;61925.94;;;22.18;nan
7105;BME280;3594;42.152;24.714;2023-10-31T13:15:17;61835.78;;;22.00;nan
7105;BME280;3594;42.152;24.714;2023-10-31T13:17:45;61922.84;;;22.13;nan
7105;BME280;3594;42.152;24.714;2023-10-31T13:20:12;61934.31;;;22.02;nan
7105;BME280;3594;42.152;24.714;2023-10-31T13:22:39;61972.13;;;21.74;nan
7105;BME280;3594;42.152;24.714;2023-10-31T13:25:06;62024.22;;;21.69;nan
7105;BME280;3594;42.152;24.714;2023-10-31T13:27:51;62009.59;;;21.79;nan
7105;BME280;3594;42.152;24.714;2023-10-31T13:30:18;61931.34;;;21.77;nan
7105;BME280;3594;42.152;24.714;2023-10-31T13:32:44;61831.81;;;21.53;nan
7105;BME280;3594;42.152;24.714;2023-10-31T13:35:10;61854.56;;;21.85;nan
7105;BME280;3594;42.152;24.714;2023-10-31T13:37:36;61856.75;;;21.64;nan
7105;BME280;3594;42.152;24.714;2023-10-31T13:40:05;62121.38;;;21.47;nan